Ciudad Obregon, Mexico

8:38 PM MST on December 04, 2016 (GMT -0700)
Ciudad Obregon International | | Change Station

Elev 203 ft 27.39 °N, 109.83 °W | Updated 1 hour ago

Clear
Clear
59 °F
Feels Like 59 °F
N
4
Wind Variable Wind from South

Today
High -- | Low -- °F
--% Chance of Precip.
Yesterday
High -- | Low -- °F
Precip. -- in
Pressure 29.92 in
Visibility 10.0 miles
Clouds Clear
Dew Point 48 °F
Humidity 67%
Rainfall 0.00 in
Snow Depth Not available.
6:54 AM 5:24 PM
Waxing Crescent, 28% visible
METAR MMCN 050144Z 17003KT 10SM SKC 15/09 A2992 RMK FULYR SW
Pressure 29.92 in
Visibility 10.0 miles
Clouds Clear
Dew Point 48 °F
Humidity 67%
Rainfall 0.00 in
Snow Depth Not available.
6:54 AM 5:24 PM
Waxing Crescent, 28% visible
METAR MMCN 050144Z 17003KT 10SM SKC 15/09 A2992 RMK FULYR SW

10-Day Weather Forecast

No radar image for this location.
×

Almanac

Astronomy

Dec. 04, 2016 Rise Set
Actual Time
Civil Twilight
Nautical Twilight
Astronomical Twilight
Moon
Length of Visible Light
Length of Day
Tomorrow will be .
, % of the Moon is Illuminated

Today's Extremes

Country Highs Country Lows

Community

WunderPhotos

Upload Photos

1,955,752 photos uploaded!

WunderBlog® & News

Nearby

Air Quality

  Air Quality AQ Index Pollutant
Not available.

Snow Depth

Station Depth Elevation

Earthquake Activity

City Distance Mag. Time & Date
Minimum magnitude displayed is 2.5.

Coastal Water Temperatures

Place Temperature

Stations

Nearby Weather Stations

Station Location Temp. Windchill Dew Point Humidity Wind Precip. Elev Updated Type